Time;durP1;ratioP1;P1;durP2;ratioP2;P2;SDS_P1;SDS_P2;PMS_P1;PMS_P2;Temp;Humidity;BMP_temperature;BMP_pressure;BME280_temperature;BME280_humidity;BME280_pressure;Samples;Min_cycle;Max_cycle;Signal;HPM_P1;HPM_P2
2021/12/26 00:00:10;;;;;;;2.47;1.30;;;20.30;34.80;;;;;;5072895;28;20201;-24
2021/12/26 00:02:36;;;;;;;1.70;1.37;;;20.20;34.80;;;;;;5055309;28;20211;-23
2021/12/26 00:05:02;;;;;;;1.60;1.33;;;20.10;34.90;;;;;;5056867;28;20183;-22
2021/12/26 00:07:28;;;;;;;3.13;1.80;;;20.00;35.00;;;;;;5056867;28;20206;-24
2021/12/26 00:09:53;;;;;;;1.40;1.30;;;20.00;35.10;;;;;;5056942;28;20198;-24
2021/12/26 00:12:19;;;;;;;2.07;1.60;;;19.90;35.10;;;;;;5056524;28;20222;-25
2021/12/26 00:14:45;;;;;;;1.40;1.30;;;19.80;35.10;;;;;;5056533;28;20781;-26
2021/12/26 00:17:11;;;;;;;2.10;1.57;;;19.80;35.10;;;;;;5057906;28;20229;-24
2021/12/26 00:19:37;;;;;;;2.30;1.43;;;19.80;35.10;;;;;;5057010;28;20250;-26
2021/12/26 00:22:05;;;;;;;1.70;1.47;;;19.70;35.20;;;;;;5056164;28;20219;-23
2021/12/26 00:24:31;;;;;;;1.80;1.50;;;19.60;35.30;;;;;;5056680;28;20192;-23
2021/12/26 00:26:57;;;;;;;1.67;1.40;;;19.60;35.30;;;;;;5057642;28;20206;-25
2021/12/26 00:29:22;;;;;;;1.87;1.60;;;19.60;35.30;;;;;;5056902;28;20207;-25
2021/12/26 00:31:48;;;;;;;1.60;1.30;;;19.50;35.40;;;;;;5055113;28;20233;-22
2021/12/26 00:34:14;;;;;;;1.77;1.40;;;19.40;35.40;;;;;;5053194;28;20204;-25
2021/12/26 00:36:40;;;;;;;2.23;1.40;;;19.30;35.40;;;;;;5057619;28;20214;-24
2021/12/26 00:39:06;;;;;;;1.50;1.40;;;19.20;35.40;;;;;;5065715;28;20216;-24
2021/12/26 00:41:33;;;;;;;1.80;1.50;;;19.10;35.40;;;;;;5072445;28;20292;-23
2021/12/26 00:43:59;;;;;;;1.90;1.50;;;19.10;35.50;;;;;;5055894;28;20210;-25
2021/12/26 00:46:26;;;;;;;1.50;1.33;;;19.10;35.50;;;;;;5057008;28;20382;-24
2021/12/26 00:48:52;;;;;;;1.80;1.50;;;18.90;35.50;;;;;;5056530;28;20592;-22
2021/12/26 00:51:17;;;;;;;1.50;1.40;;;18.80;35.60;;;;;;5056585;28;20300;-24
2021/12/26 00:53:43;;;;;;;2.00;1.60;;;18.70;35.70;;;;;;5056378;28;20698;-23
2021/12/26 00:56:09;;;;;;;1.57;1.40;;;18.70;35.70;;;;;;5072285;28;20197;-22
2021/12/26 00:58:35;;;;;;;2.07;1.60;;;18.60;35.80;;;;;;5056634;28;20284;-24
2021/12/26 01:01:00;;;;;;;2.07;1.43;;;18.50;35.90;;;;;;5056804;28;20312;-23
2021/12/26 01:03:26;;;;;;;1.73;1.60;;;18.40;36.00;;;;;;5056447;28;20204;-23
2021/12/26 01:05:54;;;;;;;1.60;1.37;;;18.40;36.00;;;;;;5056422;28;20249;-25
2021/12/26 01:08:25;;;;;;;1.50;1.40;;;18.30;36.10;;;;;;5073317;28;20196;-24
2021/12/26 01:11:07;;;;;;;1.80;1.50;;;18.20;36.20;;;;;;5056095;28;20187;-24
2021/12/26 01:13:37;;;;;;;2.20;1.53;;;18.00;36.20;;;;;;5055618;28;20206;-22
2021/12/26 01:16:06;;;;;;;1.90;1.53;;;18.00;36.40;;;;;;5055585;28;20200;-23
2021/12/26 01:18:37;;;;;;;1.80;1.50;;;17.90;36.40;;;;;;5055654;28;20202;-21
2021/12/26 01:21:15;;;;;;;2.63;1.50;;;17.80;36.40;;;;;;5056832;28;20204;-24
2021/12/26 01:23:47;;;;;;;2.10;1.47;;;17.80;36.50;;;;;;5055610;28;20195;-23
2021/12/26 01:26:13;;;;;;;1.80;1.60;;;18.00;36.50;;;;;;5055491;28;20306;-23
2021/12/26 01:28:39;;;;;;;1.87;1.20;;;18.20;36.20;;;;;;5072157;28;20299;-24
2021/12/26 01:31:06;;;;;;;1.77;1.63;;;18.30;36.10;;;;;;5056417;28;20276;-24
2021/12/26 01:33:32;;;;;;;2.63;1.40;;;18.30;36.00;;;;;;5055305;28;20271;-23
2021/12/26 01:35:57;;;;;;;2.20;1.40;;;18.20;36.00;;;;;;5059177;28;20200;-22
2021/12/26 01:38:24;;;;;;;1.73;1.30;;;18.10;36.00;;;;;;5058942;28;20236;-22
2021/12/26 01:40:53;;;;;;;1.50;1.40;;;18.10;36.10;;;;;;5058651;28;20207;-24
2021/12/26 01:43:22;;;;;;;1.93;1.67;;;18.00;36.20;;;;;;5059362;28;20274;-21
2021/12/26 01:45:50;;;;;;;1.50;1.40;;;17.90;36.20;;;;;;5059311;28;20287;-20
2021/12/26 01:48:16;;;;;;;1.50;1.37;;;17.90;36.20;;;;;;5059694;28;20598;-23
2021/12/26 01:50:44;;;;;;;2.23;1.50;;;17.80;36.30;;;;;;5075188;28;20200;-25
2021/12/26 01:53:10;;;;;;;2.07;1.60;;;17.70;36.30;;;;;;5059134;28;20171;-23
2021/12/26 01:55:40;;;;;;;1.77;1.40;;;17.60;36.40;;;;;;5055892;28;20296;-22
2021/12/26 01:58:09;;;;;;;1.77;1.53;;;17.60;36.50;;;;;;5057230;28;20201;-23
2021/12/26 02:00:36;;;;;;;1.67;1.50;;;17.60;36.60;;;;;;5072747;28;20476;-23
2021/12/26 02:03:03;;;;;;;1.30;1.20;;;17.40;36.60;;;;;;5056328;28;20203;-23
2021/12/26 02:05:28;;;;;;;1.50;1.40;;;17.40;36.70;;;;;;5061952;28;20201;-22
2021/12/26 02:07:54;;;;;;;1.57;1.40;;;17.30;36.80;;;;;;5080817;28;20240;-23
2021/12/26 02:10:20;;;;;;;1.63;1.33;;;17.30;36.90;;;;;;5066217;28;20264;-21
2021/12/26 02:12:46;;;;;;;1.60;1.50;;;17.10;36.90;;;;;;5078499;28;20322;-24
2021/12/26 02:15:11;;;;;;;1.50;1.30;;;17.20;37.00;;;;;;5095088;28;20256;-23
2021/12/26 02:17:37;;;;;;;2.53;1.30;;;17.50;36.90;;;;;;5094967;28;20626;-20
2021/12/26 02:20:25;;;;;;;2.07;1.40;;;17.70;36.60;;;;;;5078955;28;20175;-24
2021/12/26 02:22:57;;;;;;;1.50;1.27;;;17.70;36.50;;;;;;5095621;28;20196;-23
2021/12/26 02:28:07;;;;;;;1.60;1.50;;;17.70;36.50;;;;;;5078972;28;20256;-23
2021/12/26 02:30:32;;;;;;;1.30;1.20;;;17.60;36.50;;;;;;5078563;28;20199;-23
2021/12/26 02:33:03;;;;;;;1.90;1.30;;;17.60;36.60;;;;;;5075321;28;20276;-23
2021/12/26 02:35:29;;;;;;;1.43;1.30;;;17.50;36.70;;;;;;5074033;28;20184;-22
2021/12/26 02:37:56;;;;;;;1.60;1.30;;;17.40;36.70;;;;;;5092661;28;20196;-21
2021/12/26 02:40:22;;;;;;;1.50;1.40;;;17.30;36.80;;;;;;5068749;28;20195;-24
2021/12/26 02:42:48;;;;;;;2.13;1.23;;;17.30;36.90;;;;;;5078823;28;20583;-24
2021/12/26 02:45:16;;;;;;;1.70;1.30;;;17.30;37.00;;;;;;5077700;28;20481;-23
2021/12/26 02:47:47;;;;;;;2.07;1.33;;;17.30;37.00;;;;;;5058814;28;20203;-24
2021/12/26 02:50:19;;;;;;;1.40;1.27;;;17.10;37.00;;;;;;5074468;28;20526;-21
2021/12/26 02:52:46;;;;;;;1.87;1.30;;;17.10;37.10;;;;;;5077837;28;20229;-22
2021/12/26 02:55:13;;;;;;;2.57;1.30;;;17.00;37.20;;;;;;5078251;28;20190;-23
2021/12/26 02:57:39;;;;;;;1.57;1.30;;;17.00;37.20;;;;;;5077682;28;20207;-23
2021/12/26 03:00:07;;;;;;;1.47;1.37;;;16.90;37.30;;;;;;5077885;28;20276;-24
2021/12/26 03:02:33;;;;;;;1.80;1.50;;;16.80;37.40;;;;;;5079072;28;20221;-21
2021/12/26 03:04:59;;;;;;;1.47;1.30;;;17.00;37.30;;;;;;5078251;28;20555;-23
2021/12/26 03:07:24;;;;;;;1.50;1.30;;;17.40;37.00;;;;;;5078367;28;20163;-24
2021/12/26 03:09:58;;;;;;;1.40;1.30;;;17.50;36.70;;;;;;5077700;28;20199;-23
2021/12/26 03:12:24;;;;;;;1.50;1.30;;;17.50;36.60;;;;;;5093236;28;20287;-24
2021/12/26 03:14:50;;;;;;;1.70;1.23;;;17.50;36.60;;;;;;5075822;28;20210;-24
2021/12/26 03:17:17;;;;;;;1.40;1.23;;;17.40;36.60;;;;;;5075250;28;20594;-22
2021/12/26 03:19:42;;;;;;;1.73;1.20;;;17.40;36.60;;;;;;5075177;28;20211;-23
2021/12/26 03:22:08;;;;;;;1.90;1.40;;;17.40;36.60;;;;;;5092116;28;20206;-25
2021/12/26 03:24:34;;;;;;;1.30;1.20;;;17.30;36.70;;;;;;5091665;28;20349;-22
2021/12/26 03:27:02;;;;;;;1.60;1.30;;;17.20;36.70;;;;;;5078723;28;20206;-22
2021/12/26 03:29:28;;;;;;;1.30;1.20;;;17.20;36.80;;;;;;5078473;28;20202;-22
2021/12/26 03:31:53;;;;;;;1.23;1.10;;;17.10;36.70;;;;;;5062669;28;20227;-22
2021/12/26 03:34:19;;;;;;;1.83;1.37;;;17.00;36.90;;;;;;5090853;28;20580;-22
2021/12/26 03:36:46;;;;;;;1.40;1.30;;;17.00;36.90;;;;;;5075720;28;20618;-23
2021/12/26 03:39:12;;;;;;;1.30;1.10;;;16.80;37.00;;;;;;5077395;28;20294;-23
2021/12/26 03:41:37;;;;;;;1.63;1.50;;;16.90;37.10;;;;;;5074612;28;20286;-23
2021/12/26 03:44:03;;;;;;;1.43;1.33;;;17.20;36.90;;;;;;5080185;28;20436;-21
2021/12/26 03:46:29;;;;;;;1.47;1.30;;;17.40;36.60;;;;;;5055174;28;20201;-23
2021/12/26 03:48:55;;;;;;;1.33;1.23;;;17.50;36.40;;;;;;5055895;28;20205;-23
2021/12/26 03:51:20;;;;;;;1.33;1.20;;;17.50;36.30;;;;;;5055112;28;20314;-22
2021/12/26 03:53:46;;;;;;;1.47;1.37;;;17.50;36.30;;;;;;5054178;28;20528;-23
2021/12/26 03:56:12;;;;;;;1.50;1.30;;;17.40;36.30;;;;;;5054982;28;20209;-21
2021/12/26 03:58:42;;;;;;;1.50;1.30;;;17.30;36.30;;;;;;5057429;28;20642;-22
2021/12/26 04:01:07;;;;;;;1.63;1.30;;;17.30;36.40;;;;;;5057249;28;20210;-24
2021/12/26 04:03:33;;;;;;;1.50;1.40;;;17.20;36.50;;;;;;5059242;28;20294;-23
2021/12/26 04:05:59;;;;;;;1.70;1.40;;;17.10;36.50;;;;;;5065355;28;20216;-23
2021/12/26 04:08:25;;;;;;;1.60;1.40;;;17.10;36.50;;;;;;5057252;28;20219;-23
2021/12/26 04:10:51;;;;;;;1.87;1.30;;;17.00;36.50;;;;;;5056991;28;20242;-23
2021/12/26 04:13:17;;;;;;;1.30;1.20;;;17.00;36.60;;;;;;5056802;28;20200;-24
2021/12/26 04:15:43;;;;;;;1.40;1.30;;;16.90;36.60;;;;;;5055505;28;20226;-23
2021/12/26 04:18:08;;;;;;;1.50;1.40;;;16.80;36.70;;;;;;5057405;28;20241;-20
2021/12/26 04:20:34;;;;;;;1.70;1.30;;;16.90;36.80;;;;;;5056608;28;20273;-22
2021/12/26 04:23:00;;;;;;;1.50;1.27;;;17.20;36.70;;;;;;5057319;28;20518;-24
2021/12/26 04:25:27;;;;;;;1.40;1.10;;;17.30;36.40;;;;;;5056201;28;20264;-23
2021/12/26 04:27:53;;;;;;;1.30;1.17;;;17.40;36.30;;;;;;5056606;28;20253;-23
2021/12/26 04:30:20;;;;;;;1.63;1.20;;;17.40;36.30;;;;;;5056109;28;20200;-25
2021/12/26 04:32:47;;;;;;;1.20;1.10;;;17.30;36.60;;;;;;5056275;28;20621;-21
2021/12/26 04:35:17;;;;;;;1.87;1.43;;;17.40;36.30;;;;;;5056334;28;20274;-22
2021/12/26 04:37:42;;;;;;;1.47;1.33;;;17.30;36.20;;;;;;5056651;28;20208;-23
2021/12/26 04:40:11;;;;;;;1.20;1.10;;;17.20;36.30;;;;;;5072462;28;20476;-24
2021/12/26 04:42:39;;;;;;;1.30;1.10;;;17.10;36.40;;;;;;5056412;28;20206;-24
2021/12/26 04:45:08;;;;;;;1.20;1.10;;;17.00;36.50;;;;;;5056995;28;20207;-24
2021/12/26 04:47:34;;;;;;;1.10;1.00;;;17.00;36.60;;;;;;5056454;28;20584;-23
2021/12/26 04:50:01;;;;;;;1.40;1.17;;;16.90;36.70;;;;;;5055868;28;20314;-20
2021/12/26 04:52:26;;;;;;;1.20;1.10;;;16.90;36.80;;;;;;5053563;28;20235;-21
2021/12/26 04:54:53;;;;;;;1.37;1.10;;;16.80;36.90;;;;;;5053704;28;20512;-23
2021/12/26 04:57:18;;;;;;;1.37;1.17;;;16.80;37.40;;;;;;5070348;28;20334;-24
2021/12/26 04:59:44;;;;;;;1.37;1.20;;;16.70;37.00;;;;;;5054727;28;20558;-22
2021/12/26 05:02:11;;;;;;;1.17;1.00;;;16.60;37.10;;;;;;5070378;28;20560;-24
2021/12/26 05:04:36;;;;;;;1.30;1.20;;;16.50;37.20;;;;;;5053624;28;20206;-23
2021/12/26 05:07:03;;;;;;;1.30;1.07;;;16.40;37.30;;;;;;5069418;28;20193;-23
2021/12/26 05:09:28;;;;;;;1.37;1.27;;;16.20;37.30;;;;;;5055543;28;20585;-22
2021/12/26 05:11:57;;;;;;;1.30;1.20;;;16.10;37.50;;;;;;5073684;28;20231;-25
2021/12/26 05:14:24;;;;;;;1.33;1.20;;;15.90;37.60;;;;;;5058022;28;20199;-24
2021/12/26 05:16:50;;;;;;;1.37;1.00;;;15.70;37.70;;;;;;5057102;28;20192;-23
2021/12/26 05:19:16;;;;;;;1.40;1.30;;;15.60;37.90;;;;;;5057391;28;20542;-23
2021/12/26 05:21:41;;;;;;;1.43;1.10;;;15.60;38.00;;;;;;5073353;28;20196;-23
2021/12/26 05:24:07;;;;;;;1.47;1.13;;;15.50;38.10;;;;;;5057667;28;20591;-22
2021/12/26 05:26:33;;;;;;;1.43;1.33;;;15.40;38.20;;;;;;5058124;28;20194;-21
2021/12/26 05:28:58;;;;;;;1.23;1.13;;;15.30;38.30;;;;;;5057247;28;20199;-21
2021/12/26 05:31:24;;;;;;;1.30;1.20;;;15.20;38.40;;;;;;5056092;28;20219;-24
2021/12/26 05:33:50;;;;;;;1.10;1.00;;;15.20;38.40;;;;;;5057494;28;20309;-23
2021/12/26 05:36:16;;;;;;;1.57;1.10;;;16.00;38.40;;;;;;5056925;28;20221;-22
2021/12/26 05:38:42;;;;;;;1.40;1.30;;;19.10;36.40;;;;;;5056503;28;20376;-23
2021/12/26 05:41:07;;;;;;;1.57;1.10;;;19.80;34.70;;;;;;5058528;28;20241;-21
2021/12/26 05:43:33;;;;;;;1.30;1.20;;;20.10;34.00;;;;;;5073585;28;20203;-23
2021/12/26 05:45:59;;;;;;;1.93;1.27;;;20.20;33.70;;;;;;5056873;28;20197;-24
2021/12/26 05:48:25;;;;;;;1.20;1.07;;;20.50;33.70;;;;;;5057017;28;20477;-24
2021/12/26 05:50:52;;;;;;;1.20;1.10;;;20.80;33.40;;;;;;5057612;28;20191;-21
2021/12/26 05:53:19;;;;;;;1.33;1.17;;;21.20;33.20;;;;;;5057263;28;20301;-23
2021/12/26 05:55:45;;;;;;;1.20;1.10;;;21.50;32.90;;;;;;5056989;28;20791;-24
2021/12/26 05:58:10;;;;;;;1.27;1.10;;;21.90;32.60;;;;;;5055913;28;20296;-23
2021/12/26 06:00:36;;;;;;;1.67;1.00;;;22.20;32.40;;;;;;5056270;28;20596;-21
2021/12/26 06:03:02;;;;;;;1.27;1.17;;;22.50;32.20;;;;;;5056445;28;20207;-23
2021/12/26 06:05:28;;;;;;;1.13;1.03;;;22.90;32.00;;;;;;5055656;28;20469;-24
2021/12/26 06:07:54;;;;;;;1.20;1.10;;;23.20;31.70;;;;;;5057589;28;20264;-23
2021/12/26 06:10:19;;;;;;;0.97;0.97;;;23.50;31.50;;;;;;5073069;28;20231;-24
2021/12/26 06:12:45;;;;;;;1.20;1.10;;;23.70;31.40;;;;;;5056150;28;20277;-23
2021/12/26 06:15:13;;;;;;;1.00;1.00;;;23.70;31.30;;;;;;5056540;28;20186;-22
2021/12/26 06:17:39;;;;;;;1.10;1.00;;;23.60;31.40;;;;;;5056762;28;20309;-25
2021/12/26 06:20:06;;;;;;;1.27;1.13;;;23.60;31.50;;;;;;5056932;28;20198;-24
2021/12/26 06:22:32;;;;;;;1.60;1.00;;;23.80;31.40;;;;;;5055687;28;20205;-24
2021/12/26 06:24:58;;;;;;;1.40;1.30;;;24.10;31.30;;;;;;5057158;28;20205;-23
2021/12/26 06:27:24;;;;;;;1.13;1.03;;;24.10;31.20;;;;;;5055872;28;20199;-23
2021/12/26 06:29:49;;;;;;;1.17;1.07;;;24.10;31.20;;;;;;5071854;28;20284;-26
2021/12/26 06:32:15;;;;;;;1.03;0.93;;;24.00;31.30;;;;;;5073973;28;20622;-22
2021/12/26 06:34:41;;;;;;;1.10;1.00;;;23.90;31.40;;;;;;5058004;28;20192;-23
2021/12/26 06:37:06;;;;;;;2.03;1.03;;;24.10;31.50;;;;;;5058030;28;20465;-24
2021/12/26 06:39:32;;;;;;;1.10;1.00;;;24.30;31.40;;;;;;5072332;28;20210;-26
2021/12/26 06:41:58;;;;;;;0.90;0.90;;;24.30;31.30;;;;;;5055559;28;20245;-24
2021/12/26 06:44:24;;;;;;;1.20;1.10;;;24.10;31.40;;;;;;5056194;28;20203;-22
2021/12/26 06:46:49;;;;;;;1.10;1.00;;;24.10;31.60;;;;;;5056336;28;20254;-22
2021/12/26 06:49:17;;;;;;;1.10;1.00;;;24.20;31.50;;;;;;5055128;28;20199;-25
2021/12/26 06:51:45;;;;;;;1.07;0.93;;;24.50;31.60;;;;;;5056096;28;20208;-27
2021/12/26 06:54:11;;;;;;;1.00;0.90;;;24.50;31.40;;;;;;5055823;28;20209;-26
2021/12/26 06:56:36;;;;;;;1.00;0.90;;;24.40;31.90;;;;;;5071970;28;20198;-24
2021/12/26 06:59:02;;;;;;;1.97;1.00;;;24.40;31.60;;;;;;5055583;28;20213;-23
2021/12/26 07:01:28;;;;;;;1.20;1.10;;;24.40;31.70;;;;;;5071487;28;20218;-24
2021/12/26 07:03:54;;;;;;;1.10;1.00;;;24.70;31.60;;;;;;5055443;28;20276;-21
2021/12/26 07:06:20;;;;;;;0.93;0.90;;;24.90;31.40;;;;;;5055099;28;20195;-25
2021/12/26 07:08:45;;;;;;;1.10;1.00;;;24.70;31.40;;;;;;5056231;28;20664;-24
2021/12/26 07:11:11;;;;;;;1.00;1.00;;;24.60;31.60;;;;;;5072098;28;20207;-24
2021/12/26 07:13:37;;;;;;;1.20;1.00;;;24.50;31.70;;;;;;5055728;28;20211;-24
2021/12/26 07:16:02;;;;;;;1.30;1.20;;;24.70;31.70;;;;;;5072038;28;20211;-24
2021/12/26 07:18:28;;;;;;;1.00;0.90;;;25.00;31.60;;;;;;5055096;28;20600;-26
2021/12/26 07:20:54;;;;;;;1.23;1.13;;;25.10;31.50;;;;;;5055787;28;20184;-23
2021/12/26 07:23:20;;;;;;;0.90;0.90;;;24.90;31.50;;;;;;5055353;28;20284;-24
2021/12/26 07:25:46;;;;;;;1.10;1.00;;;24.90;31.60;;;;;;5056207;28;20223;-26
2021/12/26 07:28:11;;;;;;;1.10;1.00;;;24.90;31.60;;;;;;5055142;28;20198;-24
2021/12/26 07:30:37;;;;;;;1.13;1.00;;;24.90;31.60;;;;;;5055530;28;20194;-25
2021/12/26 07:33:03;;;;;;;1.10;1.00;;;24.90;31.50;;;;;;5070287;28;20224;-23
2021/12/26 07:35:28;;;;;;;1.03;0.97;;;24.90;31.60;;;;;;5054535;28;20465;-23
2021/12/26 07:37:54;;;;;;;0.87;0.87;;;24.80;31.60;;;;;;5054530;28;20188;-23
2021/12/26 07:40:20;;;;;;;1.23;1.10;;;24.70;31.70;;;;;;5054931;28;20201;-24
2021/12/26 07:42:46;;;;;;;0.90;0.90;;;24.70;31.70;;;;;;5054085;28;20206;-22
2021/12/26 07:45:12;;;;;;;0.97;0.90;;;24.70;31.70;;;;;;5054288;28;20199;-23
2021/12/26 07:47:39;;;;;;;1.00;0.90;;;24.70;31.80;;;;;;5055711;28;20196;-25
2021/12/26 07:50:05;;;;;;;1.57;1.00;;;24.50;31.80;;;;;;5054145;28;20462;-22
2021/12/26 07:52:35;;;;;;;0.87;0.87;;;24.50;31.90;;;;;;5054223;28;20223;-25
2021/12/26 07:55:03;;;;;;;1.20;1.00;;;24.40;31.90;;;;;;5054643;28;20252;-22
2021/12/26 07:57:29;;;;;;;1.10;1.00;;;24.60;31.80;;;;;;5070830;28;20238;-26
2021/12/26 07:59:56;;;;;;;1.37;1.20;;;24.90;31.70;;;;;;5055298;28;20483;-24
2021/12/26 08:02:21;;;;;;;0.80;0.80;;;25.10;31.60;;;;;;5054595;28;20219;-24
2021/12/26 08:04:48;;;;;;;1.20;1.10;;;25.10;31.50;;;;;;5053895;28;20217;-24
2021/12/26 08:07:14;;;;;;;1.17;1.07;;;25.40;31.40;;;;;;5053684;28;20200;-22
2021/12/26 08:09:40;;;;;;;1.20;1.10;;;25.70;31.30;;;;;;5054588;28;20290;-25
2021/12/26 08:12:06;;;;;;;1.23;1.10;;;25.90;31.10;;;;;;5054797;28;20306;-24
2021/12/26 08:14:32;;;;;;;1.73;0.90;;;25.60;31.10;;;;;;5054391;28;20188;-24
2021/12/26 08:16:58;;;;;;;0.97;0.93;;;25.60;31.10;;;;;;5053468;28;20210;-22
2021/12/26 08:19:23;;;;;;;1.20;1.00;;;25.70;31.20;;;;;;5054149;28;20209;-24
2021/12/26 08:21:52;;;;;;;0.90;0.90;;;25.90;31.20;;;;;;5053709;28;20254;-24
2021/12/26 08:24:18;;;;;;;1.63;1.00;;;25.80;31.20;;;;;;5054039;28;20176;-25
2021/12/26 08:26:49;;;;;;;1.20;1.10;;;25.60;31.20;;;;;;5053201;28;20658;-25
2021/12/26 08:29:21;;;;;;;1.30;1.20;;;25.40;31.30;;;;;;5054549;28;20215;-27
2021/12/26 08:31:47;;;;;;;1.20;1.10;;;25.20;31.40;;;;;;5053401;28;20216;-22
2021/12/26 08:34:19;;;;;;;1.20;1.10;;;25.10;31.60;;;;;;5052023;28;20620;-25
2021/12/26 08:36:44;;;;;;;1.40;1.30;;;25.00;31.60;;;;;;5053179;28;20627;-24
2021/12/26 08:39:10;;;;;;;1.30;1.20;;;25.00;31.60;;;;;;5053121;28;20199;-23
2021/12/26 08:41:36;;;;;;;1.20;1.10;;;25.00;31.60;;;;;;5053301;28;20265;-23
2021/12/26 08:44:01;;;;;;;1.20;1.10;;;24.80;31.70;;;;;;5051770;28;20695;-25
2021/12/26 08:46:27;;;;;;;1.10;1.00;;;24.70;31.80;;;;;;5053798;28;20188;-25
2021/12/26 08:48:53;;;;;;;1.20;1.10;;;24.60;32.30;;;;;;5052833;28;20500;-24
2021/12/26 08:51:19;;;;;;;1.00;0.90;;;24.60;32.00;;;;;;5052652;28;20226;-22
2021/12/26 08:53:44;;;;;;;1.60;1.20;;;24.60;32.00;;;;;;5053668;28;20231;-25
2021/12/26 08:56:10;;;;;;;1.13;1.03;;;24.60;31.90;;;;;;5052569;28;20172;-25
2021/12/26 08:58:36;;;;;;;1.40;1.20;;;24.90;31.90;;;;;;5068889;28;20291;-24
2021/12/26 09:01:01;;;;;;;1.17;1.07;;;25.10;31.80;;;;;;5069100;28;20191;-25
2021/12/26 09:03:27;;;;;;;1.07;0.97;;;25.20;31.70;;;;;;5053488;28;20552;-21
2021/12/26 09:05:53;;;;;;;1.53;1.20;;;25.30;31.70;;;;;;5052862;28;20203;-24
2021/12/26 09:08:19;;;;;;;1.20;1.10;;;25.40;31.70;;;;;;5052518;28;20203;-24
2021/12/26 09:10:45;;;;;;;1.13;1.03;;;25.60;31.70;;;;;;5051646;28;20206;-25
2021/12/26 09:13:11;;;;;;;1.20;1.10;;;25.50;31.70;;;;;;5053140;28;20267;-23
2021/12/26 09:15:38;;;;;;;2.07;1.20;;;25.30;31.70;;;;;;5050965;28;20449;-22
2021/12/26 09:18:04;;;;;;;1.10;1.00;;;25.40;31.90;;;;;;5053804;28;20542;-24
2021/12/26 09:20:30;;;;;;;1.57;1.27;;;25.50;31.90;;;;;;5051948;28;20577;-23
2021/12/26 09:22:57;;;;;;;1.80;1.30;;;25.40;32.00;;;;;;5053086;28;20222;-23
2021/12/26 09:25:24;;;;;;;1.20;1.10;;;25.60;32.00;;;;;;5052535;28;20206;-24
2021/12/26 09:27:50;;;;;;;1.30;1.20;;;25.60;32.00;;;;;;5066773;28;20247;-24
2021/12/26 09:30:15;;;;;;;1.20;1.10;;;25.60;31.90;;;;;;5050481;28;20202;-22
2021/12/26 09:32:43;;;;;;;1.37;1.27;;;25.60;31.90;;;;;;5052231;28;20215;-23
2021/12/26 09:35:09;;;;;;;1.50;1.30;;;25.40;32.00;;;;;;5068379;28;20199;-24
2021/12/26 09:37:35;;;;;;;1.13;1.00;;;25.30;32.10;;;;;;5052398;28;20458;-23
2021/12/26 09:40:01;;;;;;;1.50;1.40;;;25.40;32.20;;;;;;5068062;28;20190;-24
2021/12/26 09:42:28;;;;;;;1.93;1.40;;;25.50;32.20;;;;;;5051487;28;20189;-25
2021/12/26 09:44:54;;;;;;;3.20;1.27;;;25.40;32.10;;;;;;5050437;28;20201;-25
2021/12/26 09:47:20;;;;;;;1.30;1.20;;;25.30;32.20;;;;;;5052205;28;20222;-22
2021/12/26 09:49:45;;;;;;;2.67;1.60;;;25.30;32.20;;;;;;5052087;28;20210;-26
2021/12/26 09:52:12;;;;;;;1.33;1.20;;;25.40;32.30;;;;;;5052308;28;20217;-24
2021/12/26 09:54:38;;;;;;;4.60;1.60;;;25.40;32.20;;;;;;5051436;28;20192;-27
2021/12/26 09:57:05;;;;;;;4.00;1.70;;;25.40;32.20;;;;;;5055318;28;20209;-25
2021/12/26 09:59:31;;;;;;;3.80;1.90;;;25.10;32.40;;;;;;5055011;28;20205;-24
2021/12/26 10:02:06;;;;;;;6.53;2.07;;;25.30;32.90;;;;;;5054938;28;20195;-22
2021/12/26 10:04:33;;;;;;;4.03;2.00;;;25.30;32.90;;;;;;5055613;28;20197;-23
2021/12/26 10:07:14;;;;;;;3.80;2.13;;;25.20;32.80;;;;;;5055006;28;20195;-25
2021/12/26 10:09:43;;;;;;;7.97;2.50;;;25.00;32.90;;;;;;5054930;28;20212;-24
2021/12/26 10:12:14;;;;;;;3.27;2.23;;;24.90;33.00;;;;;;5054865;28;20526;-24
2021/12/26 10:14:43;;;;;;;13.00;2.77;;;24.80;33.10;;;;;;5054784;28;20192;-23
2021/12/26 10:17:17;;;;;;;7.80;3.43;;;23.90;33.90;;;;;;5056234;28;20191;-24
2021/12/26 10:19:44;;;;;;;10.30;3.20;;;23.60;34.80;;;;;;5058613;28;20180;-22
2021/12/26 10:22:12;;;;;;;12.30;3.17;;;24.40;34.50;;;;;;5054739;28;20195;-25
2021/12/26 10:24:46;;;;;;;9.33;3.13;;;24.60;34.20;;;;;;5053883;28;20226;-24
2021/12/26 10:27:21;;;;;;;8.73;3.07;;;24.40;34.00;;;;;;5054836;28;20246;-24
2021/12/26 10:29:52;;;;;;;10.20;3.10;;;24.00;34.30;;;;;;5053823;28;20195;-24
2021/12/26 10:32:21;;;;;;;4.83;2.73;;;23.70;34.70;;;;;;5054598;28;20506;-25
2021/12/26 10:34:52;;;;;;;5.27;2.97;;;23.40;34.80;;;;;;5054313;28;20443;-23
2021/12/26 10:37:22;;;;;;;7.93;2.90;;;23.10;35.00;;;;;;5054885;28;20215;-23
2021/12/26 10:39:49;;;;;;;10.13;3.03;;;23.10;35.00;;;;;;5053648;28;20182;-23
2021/12/26 10:42:19;;;;;;;7.87;2.83;;;23.80;34.60;;;;;;5070681;28;20521;-22
2021/12/26 10:45:05;;;;;;;7.90;2.90;;;24.90;33.50;;;;;;5069661;28;20215;-22
2021/12/26 10:47:34;;;;;;;6.40;2.70;;;25.10;33.00;;;;;;5054061;28;20208;-25
2021/12/26 10:50:06;;;;;;;6.70;2.80;;;25.00;32.90;;;;;;5069578;28;20203;-22
2021/12/26 10:52:33;;;;;;;8.23;2.97;;;25.10;33.00;;;;;;5054253;28;20277;-23
2021/12/26 10:55:03;;;;;;;4.07;2.50;;;25.30;32.90;;;;;;5069627;28;20208;-23
2021/12/26 10:57:36;;;;;;;6.97;2.77;;;25.60;32.70;;;;;;5053185;28;20599;-26
2021/12/26 11:00:04;;;;;;;5.97;2.87;;;25.90;33.00;;;;;;5054122;28;20175;-25
2021/12/26 11:02:32;;;;;;;6.83;2.80;;;26.10;32.40;;;;;;5054181;28;20185;-24
2021/12/26 11:05:12;;;;;;;7.20;2.67;;;26.30;32.20;;;;;;5052915;28;20196;-25
2021/12/26 11:07:43;;;;;;;4.13;2.40;;;26.30;32.10;;;;;;5052309;28;20184;-25
2021/12/26 11:10:30;;;;;;;6.50;2.57;;;26.10;32.00;;;;;;5053897;28;20209;-22
2021/12/26 11:12:58;;;;;;;4.70;2.60;;;26.10;32.10;;;;;;5053239;28;20337;-22
2021/12/26 11:15:28;;;;;;;4.90;2.77;;;26.00;32.10;;;;;;5052960;28;20195;-23
2021/12/26 11:18:03;;;;;;;3.87;2.43;;;26.00;32.10;;;;;;5054295;28;20192;-25
2021/12/26 11:20:33;;;;;;;3.07;2.30;;;26.00;32.20;;;;;;5054170;28;20202;-22
2021/12/26 11:23:00;;;;;;;3.57;2.60;;;25.80;32.20;;;;;;5054187;28;20226;-25
2021/12/26 11:25:27;;;;;;;3.33;2.60;;;25.70;32.30;;;;;;5053286;28;20268;-26
2021/12/26 11:27:53;;;;;;;3.93;2.77;;;25.50;32.40;;;;;;5053249;28;20288;-23
2021/12/26 11:30:20;;;;;;;3.00;2.70;;;25.20;32.50;;;;;;5052161;28;20230;-25
2021/12/26 11:32:46;;;;;;;5.07;2.70;;;25.00;32.60;;;;;;5053234;28;20525;-22
2021/12/26 11:35:13;;;;;;;2.93;2.43;;;24.70;33.30;;;;;;5052436;28;20195;-24
2021/12/26 11:37:40;;;;;;;3.20;2.20;;;24.40;33.10;;;;;;5053428;28;20195;-22
2021/12/26 11:40:09;;;;;;;6.07;2.90;;;24.30;33.40;;;;;;5052909;28;20196;-26
2021/12/26 11:42:37;;;;;;;4.80;2.30;;;24.10;33.60;;;;;;5052489;28;20294;-24
2021/12/26 11:45:35;;;;;;;6.77;2.43;;;23.80;33.90;;;;;;5069045;28;20173;-23
2021/12/26 11:48:43;;;;;;;5.80;3.03;;;23.60;34.20;;;;;;5053189;28;20191;-24
2021/12/26 11:51:37;;;;;;;5.37;2.47;;;23.50;34.40;;;;;;5052985;28;20214;-25
2021/12/26 11:54:25;;;;;;;6.33;2.70;;;23.50;34.50;;;;;;5052398;28;20179;-23
2021/12/26 11:57:16;;;;;;;5.33;2.70;;;23.50;34.40;;;;;;5052286;28;20476;-26
2021/12/26 12:00:16;;;;;;;4.13;2.73;;;23.90;34.20;;;;;;5067968;28;20208;-23
2021/12/26 12:02:49;;;;;;;5.60;2.53;;;24.50;33.60;;;;;;5044098;28;20204;-21
2021/12/26 12:05:21;;;;;;;4.40;2.60;;;24.80;33.30;;;;;;5052382;28;20172;-25
2021/12/26 12:08:14;;;;;;;4.53;2.80;;;25.20;33.00;;;;;;5067986;28;20231;-24
2021/12/26 12:10:54;;;;;;;8.43;2.87;;;25.70;32.80;;;;;;5051198;28;20260;-22
2021/12/26 12:13:26;;;;;;;4.70;3.00;;;25.80;32.60;;;;;;5067284;28;20276;-23
2021/12/26 12:15:58;;;;;;;5.97;3.23;;;25.60;32.60;;;;;;5067567;28;20451;-22
2021/12/26 12:18:27;;;;;;;6.27;2.90;;;25.80;32.60;;;;;;5067456;28;20199;-22
2021/12/26 12:21:09;;;;;;;5.20;3.37;;;25.90;32.60;;;;;;5051093;28;20199;-25
2021/12/26 12:23:37;;;;;;;4.87;2.80;;;26.00;32.40;;;;;;5051384;28;20208;-23
2021/12/26 12:26:03;;;;;;;3.67;2.67;;;25.90;32.40;;;;;;5052518;28;20295;-22
2021/12/26 12:28:41;;;;;;;4.47;3.03;;;25.80;32.40;;;;;;5050896;28;20295;-23
2021/12/26 12:31:07;;;;;;;4.20;3.20;;;25.70;32.50;;;;;;5051992;28;20473;-24
2021/12/26 12:33:34;;;;;;;5.63;3.00;;;25.60;32.50;;;;;;5051960;28;20577;-22
2021/12/26 12:36:33;;;;;;;4.20;3.00;;;25.60;32.60;;;;;;5052977;28;20271;-25
2021/12/26 12:39:17;;;;;;;3.20;2.90;;;25.60;32.60;;;;;;5051734;28;20316;-24
2021/12/26 12:41:50;;;;;;;4.50;2.93;;;25.40;32.60;;;;;;5051809;28;20194;-24
2021/12/26 12:44:23;;;;;;;4.73;2.97;;;25.20;32.70;;;;;;5053001;28;20192;-23
2021/12/26 12:47:03;;;;;;;4.23;3.00;;;25.00;32.90;;;;;;5068383;28;20191;-22
2021/12/26 12:49:48;;;;;;;4.83;3.10;;;24.80;33.10;;;;;;5051498;28;20207;-24
2021/12/26 12:52:50;;;;;;;3.60;2.97;;;24.60;33.30;;;;;;5051154;28;20211;-23